Etusivu
METAR-TAF:

METAR-TAF

Lentoasemat :

Ørsta-Voldan lentoasema

Ørsta-Volda, Norja

Leveyspiiri: 62-11N, Pituuspiiri: 006-04E, korkeus merenpinnasta: 7 m

Tämänhetkinen sää

Tämä raportti tehtiin 3 tuntia ja 59 minuuttia sitten, kello 15.20 UTC
Tuuli 5 kn eri suunnista
Lämpötila 20°C
Kosteus 53%
Ilmanpaine 1009 hPa
Näkyvyys 10 km tai enemmän
Muutamia pilviä 6200 ft:n korkeudessa

METAR: ENOV 211520Z VRB05KT 9999 FEW062 20/10 Q1009 RMK WIND 2175FT 28011KT

Aika: 21:19 (19:19 UTC)


TAF: puuttuu

Säähavainnot ja -ennusteet yli 4000 lentoasemalta (METAR- ja TAF-raportit).

Käytössä olevat sääasemat on merkitty karttaan keltaisilla ja punaisilla pisteillä.

Aseta hiiri pisteen päälle nähdäksesi sääaseman nimen.

Klikkaa sitten nähdäksesi säähavainnot ja -ennusteet.

Kartan vaihtaminen: klikkaa mustalla rastilla varustettuja vihreitä pisteitä, niin voit zoomata sisään; viivalla varustettua vihreää pistettä, niin voit zoomata ulos tai vihreitä nuolia, niin pääset viereisille kartoille.


METAR-TAF: